Hidden Valley, PA (15502)

2:56 PM EDT on August 04, 2015 (GMT -0400)
Eagle Ridge | | Change Station
CLOSE
Current Station
Personal Weather Station
Location: Berlin, PA
Elevation: 2530 ft
Nearby Weather Stations

Elev 2530 ft 39.96 °N, 79.04 °W | Updated 1 second ago

Overcast
Overcast
76.5 °F
Feels Like 78 °F
N
3.8
Wind Variable Wind from ENE
Gusts 19.0 mph

Today
High -- | Low -- °F
--% Chance of Precip.
Yesterday
High -- | Low -- °F
Precip. -- in
6:17 AM 8:27 PM
Waning Gibbous, 75% visible
Pressure 29.97 in
Visibility 10.0 miles
Clouds Few 5500 ft
Heat Index 78 °F
Dew Point 57 °F
Humidity 51%
Rainfall 0.00 in
Snow Depth Not available.
UV 0.0 out of 12
Pollen 6.40 out of 12
Air Quality Not available.
Flu Activity Not available.
METAR KJST 041854Z AUTO 24014G19KT 10SM FEW055 24/11 A3001 RMK AO2 SLP147 T02440106

More Conditions Fewer Conditions

Pressure 29.97 in
Visibility 10.0 miles
Clouds Few 5500 ft
Heat Index 78 °F
Dew Point 57 °F
Humidity 51%
Rainfall 0.00 in
Snow Depth Not available.
UV 0.0 out of 12
Pollen 6.40 out of 12
Air Quality Not available.
Flu Activity Not available.
METAR KJST 041854Z AUTO 24014G19KT 10SM FEW055 24/11 A3001 RMK AO2 SLP147 T02440106

More Conditions Fewer Conditions

10-Day Weather Forecast

×

Almanac

Astronomy

Aug. 04, 2015 Rise Set
Actual Time
Civil Twilight
Nautical Twilight
Astronomical Twilight
Moon
Length of Visible Light
Length of Day
Tomorrow will be .
, % of the Moon is Illuminated

Today's Extremes

State Highs State Lows

Community

WunderPhotos

Upload Photos

1,843,937 photos uploaded!

WunderBlogs® & News

Nearby

Air Quality

  Air Quality AQ Index Pollutant
Not available.

Snow Depth

Station Depth Elevation

Earthquake Activity

City Distance Mag. Time & Date
Minimum magnitude displayed is 2.5.

Coastal Water Temperatures

Place Temperature

Stations

Nearby Weather Stations

Station Location Temp. Windchill Dew Point Humidity Wind Precip. Elev Updated Type